DW2147 Weather Reports


Display with metric or nautical units.
time (UTC)temp
F
wind
direction
speed
MPH
gust
MPH
rain 1hr
in
rain 24hr
in
rain mn
in
humidity
%
barometer
mb
20240530032500 56 216 0.0 0.0 0.00 0.40 0.40 76 1018.7
20240530031957 56 219 0.0 0.0 0.00 0.40 0.40 76 1018.7
20240530031454 56 219 0.0 0.0 0.00 0.40 0.40 76 1018.8
20240530030954 56 220 0.0 0.0 0.00 0.40 0.40 76 1018.7
20240530030454 56 221 0.0 0.0 0.00 0.40 0.40 76 1018.7
20240530025952 56 221 0.0 0.0 0.00 0.40 0.40 76 1018.7
20240530025452 56 221 0.0 0.0 0.00 0.40 0.40 76 1018.7
20240530025216 56 221 0.0 0.0 0.00 0.40 0.40 76 1018.6
20240530024445 56 221 0.0 0.0 0.00 0.40 0.40 76 1018.7
20240530024219 56 221 0.0 0.0 0.01 0.40 0.40 76 1018.7
20240530024107 56 220 0.0 0.0 0.02 0.40 0.40 76 1018.7
20240530022946 56 221 0.0 0.0 0.02 0.40 0.40 76 1018.6
20240530022447 56 221 0.0 0.0 0.02 0.40 0.40 76 1018.6
20240530021941 56 221 0.0 0.0 0.02 0.40 0.40 76 1018.6
20240530021441 56 221 0.0 0.0 0.02 0.40 0.40 76 1018.5
20240530020940 56 221 0.0 0.0 0.02 0.40 0.40 76 1018.4
20240530020439 56 221 0.0 0.0 0.02 0.40 0.40 76 1018.5
20240530015936 56 221 0.0 0.0 0.02 0.40 0.40 76 1018.6
20240530015435 56 221 0.0 0.0 0.02 0.40 0.40 75 1018.5
20240530014934 56 221 0.0 2.0 0.02 0.40 0.40 75 1018.5
20240530014437 56 221 0.0 2.0 0.01 0.39 0.39 75 1018.4
20240530014431 56 221 0.0 2.0 0.02 0.40 0.40 75 1018.5
20240530013433 56 221 0.0 2.0 0.00 0.38 0.38 75 1018.4
20240530012931 56 221 1.0 3.0 0.00 0.38 0.38 75 1018.4
20240530012429 56 221 2.0 4.0 0.00 0.38 0.38 75 1018.2
20240530012201 56 222 2.0 4.0 0.00 0.38 0.38 75 1018.3
20240530011427 57 241 1.0 3.0 0.00 0.38 0.38 75 1018.2
20240530010929 57 243 1.0 2.0 0.00 0.38 0.38 75 1018.1
20240530010659 57 244 1.0 2.0 0.00 0.38 0.38 75 1018.1
20240530005931 57 244 2.0 3.0 0.00 0.38 0.38 75 1018.1
20240530005926 57 244 2.0 3.0 0.00 0.38 0.38 75 1018.1
20240530004925 57 318 2.0 3.0 0.00 0.38 0.38 75 1017.8
20240530004425 57 319 2.0 4.0 0.00 0.38 0.38 75 1017.9
20240530003923 57 319 2.0 4.0 0.01 0.38 0.38 75 1017.8
20240530003423 57 323 1.0 3.0 0.03 0.38 0.38 75 1017.7
20240530002922 57 323 0.0 2.0 0.04 0.38 0.38 75 1017.8
20240530002427 57 325 0.0 1.0 0.04 0.38 0.38 75 1017.6
20240530002422 57 325 0.0 1.0 0.04 0.38 0.38 75 1017.7
20240530001421 56 325 0.0 1.0 0.04 0.38 0.38 75 1017.6
20240530000919 56 325 1.0 3.0 0.04 0.38 0.38 75 1017.6
20240530000421 56 326 2.0 5.0 0.04 0.38 0.38 75 1017.6
20240529235920 56 325 2.0 5.0 0.04 0.38 0.38 75 1017.6
20240529235419 57 344 2.0 8.0 0.05 0.38 0.38 75 1017.5
20240529234918 57 315 3.0 8.0 0.06 0.38 0.38 75 1017.3
20240529234646 57 344 2.0 8.0 0.09 0.38 0.38 74 1017.3
20240529233915 57 330 2.0 5.0 0.12 0.37 0.37 74 1017.3
20240529233415 57 337 2.0 6.0 0.10 0.35 0.36 74 1017.3
20240529232916 57 333 1.0 6.0 0.09 0.34 0.34 74 1017.1
20240529232413 57 327 1.0 4.0 0.09 0.34 0.34 74 1017.0
20240529231913 57 328 1.0 8.0 0.09 0.34 0.34 74 1016.8
20240529231414 57 329 2.0 8.0 0.09 0.34 0.34 74 1016.8
20240529230910 56 316 3.0 5.0 0.09 0.34 0.34 75 1016.6
20240529230641 56 337 2.0 6.0 0.09 0.34 0.34 75 1016.4
20240529225910 57 0 3.0 6.0 0.09 0.34 0.34 76 1016.4
20240529225643 57 349 5.0 12.0 0.08 0.33 0.33 75 1016.4
20240529224911 58 18 9.0 24.0 0.07 0.32 0.32 74 1016.4
20240529224408 60 19 6.0 24.0 0.04 0.29 0.29 72 1016.6
20240529224139 61 323 1.0 9.0 0.00 0.25 0.25 73 1016.3
20240529223408 61 203 3.0 5.0 0.00 0.25 0.25 72 1016.0
20240529222909 61 195 4.0 7.0 0.00 0.25 0.25 71 1015.9
20240529222409 62 207 4.0 9.0 0.00 0.25 0.25 71 1015.9
20240529222138 62 197 4.0 9.0 0.00 0.25 0.25 70 1016.0
20240529221408 62 238 5.0 9.0 0.00 0.25 0.25 71 1016.0
20240529221139 63 178 5.0 9.0 0.00 0.25 0.25 70 1016.0
20240529220405 63 180 5.0 10.0 0.00 0.25 0.25 69 1016.1
20240529220134 63 207 6.0 10.0 0.00 0.25 0.25 70 1016.1
20240529215637 63 199 7.0 11.0 0.00 0.25 0.25 71 1016.2
20240529214903 63 181 6.0 11.0 0.00 0.25 0.25 70 1016.0
20240529214403 63 209 5.0 8.0 0.00 0.25 0.25 70 1016.3
20240529213903 63 183 4.0 7.0 0.00 0.25 0.25 69 1016.2
20240529213402 63 167 3.0 7.0 0.00 0.25 0.25 68 1016.2
20240529212902 64 179 3.0 7.0 0.00 0.25 0.25 68 1016.4
20240529212402 64 189 3.0 6.0 0.00 0.25 0.25 69 1016.4
20240529211903 63 166 2.0 5.0 0.00 0.25 0.25 70 1016.4
20240529211400 63 166 2.0 4.0 0.00 0.25 0.25 70 1016.5
20240529210900 63 167 2.0 5.0 0.00 0.26 0.25 69 1016.6
20240529210358 63 167 3.0 5.0 0.00 0.27 0.25 69 1016.6
20240529205857 63 167 1.0 5.0 0.00 0.29 0.25 69 1016.7
20240529205356 63 155 1.0 5.0 0.00 0.33 0.25 69 1016.7
20240529204855 62 155 2.0 5.0 0.00 0.51 0.25 69 1016.6
20240529204351 62 158 2.0 5.0 0.01 0.52 0.25 72 1016.6
20240529203852 62 186 2.0 5.0 0.01 0.52 0.25 72 1016.4
20240529203349 61 5 2.0 5.0 0.01 0.52 0.25 73 1016.4
20240529202850 61 0 1.0 5.0 0.01 0.52 0.25 72 1016.3
20240529202350 61 35 1.0 3.0 0.01 0.52 0.25 73 1016.0
20240529202122 61 35 1.0 8.0 0.01 0.52 0.25 73 1016.2
20240529201347 61 35 2.0 8.0 0.01 0.52 0.25 73 1016.3
20240529200845 61 93 2.0 8.0 0.01 0.52 0.25 73 1016.4
20240529200615 61 355 3.0 8.0 0.01 0.52 0.25 73 1016.1
20240529195845 61 335 4.0 9.0 0.01 0.52 0.25 71 1016.1
20240529195345 61 11 6.0 17.0 0.01 0.52 0.25 70 1016.4
20240529194847 62 347 7.0 17.0 0.01 0.52 0.25 69 1016.3
20240529194616 63 355 6.0 15.0 0.00 0.51 0.24 68 1016.2
20240529193843 64 12 5.0 15.0 0.00 0.51 0.24 67 1016.2
20240529193613 64 355 4.0 11.0 0.00 0.51 0.24 68 1016.2
20240529192840 64 198 4.0 7.0 0.00 0.51 0.24 69 1016.0
20240529192341 63 178 4.0 8.0 0.00 0.51 0.24 70 1015.9
20240529191842 62 222 3.0 8.0 0.01 0.51 0.24 71 1015.8
20240529191339 61 259 2.0 8.0 0.02 0.51 0.24 73 1015.6
20240529190835 60 236 3.0 8.0 0.06 0.51 0.24 74 1015.4
20240529190335 59 246 3.0 8.0 0.16 0.51 0.24 75 1015.5
20240529185835 59 263 3.0 8.0 0.16 0.51 0.24 75 1015.4
20240529185335 59 257 3.0 9.0 0.16 0.51 0.24 75 1015.3
20240529184834 59 250 4.0 11.0 0.16 0.51 0.24 75 1015.2
20240529184606 59 242 4.0 11.0 0.16 0.51 0.24 75 1015.2
20240529183836 59 251 4.0 9.0 0.16 0.51 0.24 75 1015.1
20240529183336 59 236 4.0 9.0 0.16 0.51 0.24 75 1015.0
20240529182833 59 233 4.0 8.0 0.16 0.51 0.24 75 1015.2
20240529182333 59 309 3.0 8.0 0.16 0.51 0.24 73 1015.1
20240529181831 60 248 3.0 12.0 0.16 0.50 0.23 70 1015.2
20240529181332 61 205 5.0 21.0 0.22 0.49 0.22 68 1015.4
20240529180835 63 216 6.0 21.0 0.18 0.45 0.19 65 1015.6
20240529180334 65 249 3.0 14.0 0.08 0.35 0.08 68 1015.5
20240529175832 65 238 2.0 8.0 0.08 0.35 0.08 69 1015.2
20240529175329 65 271 2.0 6.0 0.08 0.35 0.08 71 1015.2
20240529174829 64 254 3.0 7.0 0.08 0.35 0.08 70 1015.1
20240529174329 64 320 2.0 7.0 0.08 0.35 0.08 70 1015.1
20240529173827 65 263 2.0 6.0 0.08 0.35 0.08 74 1015.3
20240529173325 64 257 2.0 6.0 0.08 0.35 0.08 75 1015.2
20240529172824 64 227 2.0 4.0 0.08 0.35 0.08 73 1015.1
20240529172322 64 229 5.0 20.0 0.08 0.35 0.08 69 1015.2
20240529171820 65 355 6.0 20.0 0.07 0.34 0.08 64 1015.5
20240529171318 68 351 6.0 19.0 0.00 0.27 0.00 61 1015.5
20240529170818 68 291 7.0 19.0 0.00 0.27 0.00 60 1015.4
20240529170319 69 0 6.0 13.0 0.00 0.27 0.00 59 1015.4
20240529165817 69 234 6.0 17.0 0.00 0.27 0.00 58 1015.4
20240529165314 70 338 5.0 17.0 0.00 0.27 0.00 59 1015.5
20240529164815 70 307 5.0 12.0 0.00 0.27 0.00 61 1015.6
20240529164546 70 308 7.0 15.0 0.00 0.27 0.00 61 1015.5
20240529163817 70 215 7.0 15.0 0.00 0.27 0.00 59 1015.5
20240529163314 70 182 6.0 12.0 0.00 0.27 0.00 60 1015.5
20240529162812 69 336 7.0 15.0 0.00 0.27 0.00 61 1015.6
20240529162313 69 225 7.0 18.0 0.00 0.27 0.00 61 1015.7
20240529161312 69 211 5.0 16.0 0.00 0.27 0.00 63 1015.6
20240529160816 69 235 6.0 17.0 0.00 0.27 0.00 63 1015.7
20240529160811 69 205 4.0 11.0 0.00 0.27 0.00 64 1015.7
20240529155809 69 205 7.0 17.0 0.00 0.27 0.00 65 1015.8
20240529155310 69 229 6.0 12.0 0.00 0.27 0.00 65 1015.9
20240529154808 68 226 5.0 10.0 0.00 0.27 0.00 64 1015.9
20240529154307 68 167 4.0 9.0 0.00 0.27 0.00 70 1016.0
20240529153806 66 174 3.0 10.0 0.00 0.27 0.00 67 1015.9
20240529153307 66 337 3.0 10.0 0.00 0.27 0.00 65 1016.1
20240529152808 67 298 3.0 10.0 0.00 0.27 0.00 66 1016.2
20240529152306 67 228 4.0 16.0 0.00 0.27 0.00 66 1016.2
20240529151804 67 205 5.0 16.0 0.00 0.27 0.00 64 1016.3
20240529151305 67 80 5.0 14.0 0.00 0.27 0.00 66 1016.2
20240529151039 67 264 5.0 14.0 0.00 0.27 0.00 66 1016.2
20240529150533 66 198 4.0 10.0 0.00 0.27 0.00 69 1016.1
20240529145800 66 249 4.0 10.0 0.00 0.27 0.00 67 1016.2
20240529145259 65 250 4.0 9.0 0.00 0.27 0.00 67 1016.1
20240529145032 65 328 5.0 10.0 0.00 0.27 0.00 67 1016.2
20240529144258 65 213 5.0 11.0 0.00 0.27 0.00 66 1016.1
20240529143756 65 246 5.0 11.0 0.00 0.27 0.00 66 1016.1
20240529143257 65 192 5.0 12.0 0.00 0.27 0.00 67 1016.1
20240529142756 65 216 6.0 12.0 0.00 0.27 0.00 67 1016.1
20240529142256 64 229 6.0 12.0 0.00 0.27 0.00 67 1016.1
20240529141753 63 173 5.0 10.0 0.00 0.27 0.00 69 1016.0
20240529141254 63 226 2.0 7.0 0.00 0.27 0.00 71 1016.0
20240529140753 62 184 2.0 7.0 0.00 0.27 0.00 75 1016.0
20240529140251 62 153 3.0 7.0 0.00 0.27 0.00 75 1016.1
20240529135753 61 142 4.0 6.0 0.00 0.27 0.00 79 1016.0
20240529135529 60 168 2.0 5.0 0.00 0.27 0.00 82 1016.0
20240529135253 61 170 3.0 6.0 0.00 0.27 0.00 81 1016.0
20240529134251 59 170 1.0 5.0 0.00 0.27 0.00 82 1015.9
20240529133751 58 321 0.0 3.0 0.00 0.27 0.00 82 1016.1
20240529133248 58 322 0.0 3.0 0.00 0.27 0.00 82 1015.9
20240529132750 58 321 0.0 2.0 0.00 0.27 0.00 81 1016.0
20240529132249 57 321 0.0 2.0 0.00 0.27 0.00 82 1015.9
20240529131749 57 320 0.0 0.0 0.00 0.27 0.00 82 1016.0
20240529131247 57 321 0.0 2.0 0.00 0.27 0.00 82 1015.9
20240529130750 57 320 1.0 4.0 0.00 0.27 0.00 82 1015.8
20240529130247 57 321 2.0 6.0 0.00 0.27 0.00 82 1015.8
20240529125748 57 339 3.0 8.0 0.00 0.27 0.00 82 1015.7
20240529125244 57 336 4.0 9.0 0.00 0.27 0.00 82 1015.7
20240529124742 57 273 4.0 9.0 0.00 0.27 0.00 82 1015.7
20240529124243 57 313 2.0 6.0 0.00 0.27 0.00 82 1015.6
20240529123742 57 331 1.0 5.0 0.00 0.27 0.00 82 1015.5
20240529123242 57 186 2.0 4.0 0.00 0.27 0.00 82 1015.2
20240529123013 57 186 2.0 5.0 0.00 0.27 0.00 82 1015.0
20240529122241 57 227 3.0 6.0 0.00 0.27 0.00 82 1014.9
20240529121742 57 202 2.0 6.0 0.00 0.27 0.00 82 1014.9
20240529121240 56 145 2.0 6.0 0.00 0.27 0.00 82 1014.4
20240529120742 56 183 4.0 8.0 0.00 0.27 0.00 82 1014.5
20240529120239 56 171 6.0 10.0 0.00 0.27 0.00 82 1014.6
20240529115741 56 157 5.0 10.0 0.00 0.27 0.00 82 1014.6
20240529115239 57 188 6.0 10.0 0.00 0.27 0.00 82 1014.9
20240529114737 57 194 6.0 13.0 0.00 0.27 0.00 82 1014.9
20240529114507 57 169 5.0 13.0 0.00 0.27 0.00 82 1015.0
20240529113739 56 202 5.0 13.0 0.00 0.27 0.00 82 1015.0
20240529113235 56 260 4.0 13.0 0.00 0.27 0.00 82 1014.9
20240529113008 56 232 5.0 11.0 0.00 0.27 0.00 83 1014.9
20240529112506 56 203 5.0 14.0 0.00 0.27 0.00 83 1014.9
20240529111735 56 207 2.0 14.0 0.00 0.27 0.00 82 1014.9
20240529111235 55 213 1.0 4.0 0.00 0.27 0.00 81 1014.5
20240529110736 55 176 0.0 2.0 0.00 0.27 0.00 81 1014.1
20240529110234 54 176 0.0 2.0 0.00 0.27 0.00 81 1013.8
20240529105733 54 182 0.0 2.0 0.00 0.27 0.00 80 1013.8
20240529105229 54 182 0.0 2.0 0.00 0.27 0.00 80 1013.8
20240529104729 54 182 0.0 1.0 0.00 0.27 0.00 80 1013.8
20240529104459 54 182 0.0 1.0 0.00 0.27 0.00 80 1013.9
20240529103727 54 182 0.0 0.0 0.00 0.27 0.00 80 1013.8
20240529103224 54 182 0.0 2.0 0.00 0.27 0.00 79 1013.8
20240529102723 54 182 1.0 2.0 0.00 0.27 0.00 79 1013.8
20240529102222 54 183 1.0 3.0 0.00 0.27 0.00 79 1013.8
20240529101719 54 184 1.0 3.0 0.00 0.27 0.00 79 1013.9
20240529101219 54 184 2.0 4.0 0.00 0.27 0.00 79 1013.8
20240529100718 54 187 2.0 4.0 0.00 0.27 0.00 79 1013.9
20240529100218 54 185 2.0 4.0 0.00 0.27 0.00 79 1013.9
20240529095718 54 182 2.0 3.0 0.00 0.27 0.00 79 1013.8
20240529095217 54 202 1.0 3.0 0.00 0.27 0.00 79 1013.8
20240529094715 54 202 1.0 3.0 0.00 0.27 0.00 79 1013.9
20240529094215 54 204 1.0 3.0 0.00 0.27 0.00 79 1013.9
20240529093715 54 203 0.0 2.0 0.00 0.27 0.00 79 1014.0
20240529093446 54 203 0.0 2.0 0.00 0.27 0.00 79 1013.9
20240529092710 54 203 1.0 2.0 0.00 0.27 0.00 79 1013.9
20240529092440 54 203 1.0 2.0 0.00 0.27 0.00 79 1013.8
20240529091708 54 203 1.0 2.0 0.00 0.27 0.00 79 1013.9
20240529091208 54 203 1.0 3.0 0.00 0.27 0.00 79 1013.9
20240529090709 54 204 1.0 3.0 0.00 0.27 0.00 79 1014.0
20240529090208 54 205 1.0 3.0 0.00 0.27 0.00 79 1013.9
20240529085938 54 188 1.0 3.0 0.00 0.27 0.00 79 1013.9
20240529085204 54 188 1.0 3.0 0.00 0.27 0.00 79 1013.9
20240529084703 54 186 1.0 2.0 0.00 0.27 0.00 78 1014.1
20240529084203 54 186 0.0 2.0 0.00 0.27 0.00 78 1014.0
20240529083703 54 186 0.0 2.0 0.00 0.27 0.00 78 1014.1
20240529083205 54 186 1.0 3.0 0.00 0.27 0.00 78 1014.0
20240529082702 54 186 2.0 3.0 0.00 0.27 0.00 78 1013.9
20240529082206 54 188 1.0 3.0 0.00 0.27 0.00 78 1013.9
20240529081703 54 199 0.0 2.0 0.00 0.27 0.00 78 1014.0
20240529081203 54 202 0.0 0.0 0.00 0.27 0.00 78 1013.9
20240529080934 54 202 0.0 0.0 0.00 0.27 0.00 78 1014.0
20240529080202 55 202 0.0 0.0 0.00 0.27 0.00 78 1014.5
20240529075931 54 202 0.0 0.0 0.00 0.27 0.00 78 1014.5
20240529075433 54 202 0.0 0.0 0.00 0.27 0.00 78 1014.4
20240529075158 55 202 0.0 0.0 0.00 0.27 0.00 78 1014.3
20240529074152 54 202 0.0 0.0 0.00 0.27 0.00 78 1014.3
20240529073649 54 202 0.0 0.0 0.00 0.27 0.00 77 1014.4
20240529073420 54 203 0.0 0.0 0.00 0.27 0.00 77 1014.4
20240529072917 54 203 0.0 0.0 0.00 0.27 0.00 77 1014.5
20240529072146 55 204 0.0 0.0 0.00 0.27 0.00 77 1014.5
20240529071912 55 204 0.0 0.0 0.00 0.27 0.00 77 1014.4
20240529071142 55 204 0.0 0.0 0.00 0.27 0.00 77 1014.5
20240529070914 55 204 0.0 0.0 0.00 0.27 0.00 77 1014.5
20240529070142 55 204 0.0 0.0 0.00 0.27 0.00 76 1014.4
20240529065640 55 204 0.0 0.0 0.00 0.27 0.00 76 1014.4
20240529065140 55 204 0.0 0.0 0.00 0.27 0.00 76 1014.5
20240529064638 55 204 0.0 0.0 0.00 0.27 0.00 76 1014.5
20240529064136 55 204 0.0 0.0 0.00 0.27 0.00 76 1014.6
20240529063636 55 204 0.0 0.0 0.00 0.27 0.00 76 1014.6
20240529063135 55 204 0.0 0.0 0.00 0.27 0.00 76 1014.8
20240529062634 55 204 0.0 0.0 0.00 0.27 0.00 76 1014.8
20240529062136 55 204 0.0 0.0 0.00 0.27 0.00 76 1014.9
20240529061628 55 204 0.0 0.0 0.00 0.27 0.00 76 1014.9
20240529061126 55 204 0.0 0.0 0.00 0.27 0.00 76 1015.0
20240529060624 55 204 0.0 0.0 0.00 0.27 0.00 76 1015.0
20240529060121 56 204 0.0 0.0 0.00 0.27 0.00 76 1015.0
20240529055625 56 204 0.0 0.0 0.00 0.27 0.00 75 1015.1
20240529055352 56 204 0.0 0.0 0.00 0.27 0.00 75 1015.2
20240529054617 56 204 0.0 0.0 0.00 0.27 0.00 75 1015.2
20240529054115 56 204 0.0 0.0 0.00 0.27 0.00 75 1015.1
20240529053616 56 204 0.0 0.0 0.00 0.27 0.00 75 1015.2
20240529053116 56 204 0.0 0.0 0.00 0.27 0.00 75 1015.3
20240529052616 56 204 0.0 0.0 0.00 0.27 0.00 75 1015.2
20240529052112 56 204 0.0 0.0 0.00 0.27 0.00 75 1015.2
20240529051844 57 204 0.0 0.0 0.00 0.27 0.00 75 1015.3
20240529051114 57 204 0.0 0.0 0.00 0.27 0.00 75 1015.3
20240529050612 57 204 0.0 0.0 0.00 0.27 0.00 75 1015.3
20240529050109 57 204 0.0 0.0 0.00 0.27 0.00 75 1015.3
20240529045611 57 204 0.0 0.0 0.00 0.27 0.00 75 1015.4
20240529045107 57 204 0.0 0.0 0.00 0.27 0.00 75 1015.3
20240529044604 57 204 0.0 1.0 0.00 0.27 0.00 75 1015.4
20240529044102 57 204 0.0 2.0 0.00 0.27 0.00 75 1015.4
20240529043604 57 205 0.0 2.0 0.00 0.27 0.00 75 1015.5
20240529043335 57 205 0.0 0.0 0.00 0.27 0.00 75 1015.4
20240529042606 58 205 0.0 0.0 0.00 0.27 0.00 75 1015.4
20240529042058 58 205 0.0 0.0 0.00 0.27 0.00 75 1015.3
20240529041828 58 205 0.0 0.0 0.00 0.27 0.00 75 1015.2
20240529041054 58 205 0.0 1.0 0.00 0.27 0.00 75 1015.2
20240529040552 58 205 0.0 2.0 0.00 0.27 0.00 75 1015.2
20240529040055 58 205 1.0 2.0 0.00 0.27 0.00 74 1015.2
20240529035549 58 205 1.0 3.0 0.00 0.27 0.27 74 1015.1
20240529035057 58 205 1.0 3.0 0.00 0.27 0.27 74 1015.1
20240529035037 58 205 0.0 2.0 0.00 0.27 0.27 74 1015.0
20240529034114 58 207 0.0 2.0 0.00 0.27 0.27 74 1015.4
20240529032756 59 207 0.0 3.0 0.00 0.27 0.27 74 1015.2